createdAt,value
2019-05-05T00:00:11.248Z,4.75
2019-05-05T00:01:11.268Z,4.75
2019-05-05T00:02:11.293Z,4.74
2019-05-05T00:03:58.874Z,4.71
2019-05-05T00:04:58.900Z,4.61
2019-05-05T00:05:58.916Z,4.69
2019-05-05T00:06:58.940Z,4.64
2019-05-05T00:07:58.964Z,4.69
2019-05-05T00:08:58.993Z,4.61
2019-05-05T00:09:59.011Z,4.69
2019-05-05T00:10:59.035Z,4.58
2019-05-05T00:11:59.057Z,4.71
2019-05-05T00:12:59.081Z,4.65
2019-05-05T00:13:59.103Z,4.66
2019-05-05T00:14:59.126Z,4.60
2019-05-05T00:15:59.149Z,4.72
2019-05-05T00:16:59.175Z,4.56
2019-05-05T00:17:59.193Z,4.60
2019-05-05T00:18:59.215Z,4.68
2019-05-05T00:19:59.239Z,4.74
2019-05-05T00:20:59.266Z,4.68
2019-05-05T00:21:59.286Z,4.64
2019-05-05T00:22:59.309Z,4.71
2019-05-05T00:23:59.339Z,4.68
2019-05-05T00:24:59.356Z,4.68
2019-05-05T00:25:59.382Z,4.69
2019-05-05T00:26:59.399Z,4.69
2019-05-05T00:27:59.422Z,4.76
2019-05-05T00:28:59.445Z,4.69
2019-05-05T00:29:59.471Z,4.78
2019-05-05T00:30:59.493Z,4.83
2019-05-05T00:31:59.517Z,4.78
2019-05-05T00:32:59.547Z,4.83
2019-05-05T00:33:59.566Z,4.83
2019-05-05T00:34:59.583Z,4.83
2019-05-05T00:35:59.607Z,4.83
2019-05-05T00:36:59.630Z,4.84
2019-05-05T00:37:59.651Z,4.83
2019-05-05T00:38:59.674Z,4.78
2019-05-05T00:39:59.700Z,4.74
2019-05-05T00:40:59.724Z,4.69
2019-05-05T00:41:59.745Z,4.71
2019-05-05T00:42:59.774Z,4.68
2019-05-05T00:43:59.791Z,4.56
2019-05-05T00:44:59.812Z,4.58
2019-05-05T00:45:59.836Z,4.57
2019-05-05T00:46:59.859Z,4.56
2019-05-05T00:47:59.883Z,4.53
2019-05-05T00:48:59.912Z,4.54
2019-05-05T00:49:59.925Z,4.54
2019-05-05T00:50:59.949Z,4.53
2019-05-05T00:51:59.972Z,4.51
2019-05-05T00:53:00.001Z,4.48
2019-05-05T00:54:00.025Z,4.48
2019-05-05T00:55:00.042Z,4.48
2019-05-05T00:56:00.065Z,4.51
2019-05-05T00:57:00.088Z,4.47
2019-05-05T00:58:00.108Z,4.51
2019-05-05T00:59:00.134Z,4.54
2019-05-05T01:00:00.163Z,4.56
2019-05-05T01:01:00.183Z,4.53
2019-05-05T01:02:00.206Z,4.54
2019-05-05T01:03:00.225Z,4.54
2019-05-05T01:04:00.254Z,4.50
2019-05-05T01:05:00.271Z,4.50
2019-05-05T01:06:00.293Z,4.50
2019-05-05T01:07:00.316Z,4.56
2019-05-05T01:08:00.337Z,4.36
2019-05-05T01:09:00.363Z,4.46
2019-05-05T01:10:00.385Z,4.38
2019-05-05T01:11:00.412Z,4.38
2019-05-05T01:12:26.102Z,4.38
2019-05-05T01:13:00.459Z,4.33
2019-05-05T01:14:00.475Z,4.29
2019-05-05T01:15:00.498Z,4.35
2019-05-05T01:16:00.521Z,4.30
2019-05-05T01:17:00.542Z,4.21
2019-05-05T01:18:02.179Z,4.20
2019-05-05T01:19:00.589Z,4.22
2019-05-05T01:20:04.081Z,4.10
2019-05-05T01:21:00.635Z,4.18
2019-05-05T01:22:00.660Z,4.17
2019-05-05T01:23:00.681Z,4.17
2019-05-05T01:24:00.702Z,4.28
2019-05-05T01:25:00.726Z,4.24
2019-05-05T01:26:00.745Z,4.24
2019-05-05T01:27:00.767Z,4.24
2019-05-05T01:28:00.792Z,4.28
2019-05-05T01:29:00.815Z,4.28
2019-05-05T01:30:00.840Z,4.26
2019-05-05T01:31:00.857Z,4.32
2019-05-05T01:32:00.890Z,4.30
2019-05-05T01:33:00.910Z,4.26
2019-05-05T01:34:00.929Z,4.32
2019-05-05T01:35:00.950Z,4.40
2019-05-05T01:36:00.978Z,4.36
2019-05-05T01:37:00.995Z,4.32
2019-05-05T01:38:01.017Z,4.29
2019-05-05T01:39:01.042Z,4.26
2019-05-05T01:40:01.063Z,4.35
2019-05-05T01:41:01.088Z,4.29
2019-05-05T01:42:01.115Z,4.28
2019-05-05T01:43:01.141Z,4.24
2019-05-05T01:44:01.154Z,4.29
2019-05-05T01:45:01.179Z,4.29
2019-05-05T01:46:01.201Z,4.32
2019-05-05T01:47:01.220Z,4.35
2019-05-05T01:48:01.247Z,4.29
2019-05-05T01:49:01.269Z,4.26
2019-05-05T01:50:15.171Z,4.33
2019-05-05T01:51:01.313Z,4.30
2019-05-05T01:52:01.338Z,4.30
2019-05-05T01:53:01.357Z,4.29
2019-05-05T01:54:01.384Z,4.24
2019-05-05T01:55:01.416Z,4.28
2019-05-05T01:56:01.426Z,4.21
2019-05-05T01:57:01.449Z,4.28
2019-05-05T01:58:01.472Z,4.30
2019-05-05T01:59:01.501Z,4.22
2019-05-05T02:00:01.522Z,4.24
2019-05-05T02:01:01.543Z,4.29
2019-05-05T02:02:01.564Z,4.24
2019-05-05T02:03:01.585Z,4.29
2019-05-05T02:04:01.609Z,4.28
2019-05-05T02:05:01.638Z,4.22
2019-05-05T02:06:01.653Z,4.28
2019-05-05T02:07:01.676Z,4.26
2019-05-05T02:08:01.702Z,4.26
2019-05-05T02:09:01.725Z,4.28
2019-05-05T02:10:01.745Z,4.24
2019-05-05T02:11:01.769Z,4.22
2019-05-05T02:12:01.789Z,4.18
2019-05-05T02:13:01.815Z,4.24
2019-05-05T02:14:01.843Z,4.18
2019-05-05T02:15:01.860Z,4.22
2019-05-05T02:16:01.881Z,4.28
2019-05-05T02:17:01.907Z,4.30
2019-05-05T02:18:01.928Z,4.20
2019-05-05T02:19:01.952Z,4.28
2019-05-05T02:20:01.982Z,4.28
2019-05-05T02:21:02.001Z,4.26
2019-05-05T02:22:02.019Z,4.20
2019-05-05T02:23:02.042Z,4.18
2019-05-05T02:24:02.071Z,4.14
2019-05-05T02:25:03.730Z,4.18
2019-05-05T02:26:02.116Z,4.11
2019-05-05T02:27:02.132Z,4.17
2019-05-05T02:28:04.299Z,4.14
2019-05-05T02:29:02.178Z,4.20
2019-05-05T02:30:05.816Z,4.14
2019-05-05T02:31:02.223Z,4.08
2019-05-05T02:32:05.938Z,4.07
2019-05-05T02:33:02.270Z,4.08
2019-05-05T02:34:05.274Z,4.15
2019-05-05T02:35:02.325Z,4.08
2019-05-05T02:36:05.267Z,4.10
2019-05-05T02:37:05.258Z,4.20
2019-05-05T02:38:02.383Z,4.07
2019-05-05T02:39:05.221Z,4.08
2019-05-05T02:40:05.484Z,4.12
2019-05-05T02:41:05.019Z,4.04
2019-05-05T02:42:05.428Z,4.10
2019-05-05T02:43:05.330Z,4.04
2019-05-05T02:44:05.127Z,4.14
2019-05-05T02:45:05.005Z,4.02
2019-05-05T02:46:05.299Z,4.02
2019-05-05T02:47:04.785Z,4.04
2019-05-05T02:48:05.541Z,4.03
2019-05-05T02:49:05.383Z,4.00
2019-05-05T02:50:04.997Z,4.02
2019-05-05T02:51:06.402Z,4.08
2019-05-05T02:52:04.853Z,4.00
2019-05-05T02:53:04.052Z,4.10
2019-05-05T02:54:04.438Z,3.94
2019-05-05T02:55:04.119Z,4.02
2019-05-05T02:56:04.204Z,3.92
2019-05-05T02:57:04.614Z,3.96
2019-05-05T02:58:03.813Z,3.90
2019-05-05T02:59:04.309Z,4.04
2019-05-05T03:00:04.509Z,4.03
2019-05-05T03:01:04.767Z,3.93
2019-05-05T03:02:04.307Z,3.92
2019-05-05T03:03:04.464Z,3.89
2019-05-05T03:04:03.746Z,3.96
2019-05-05T03:05:04.198Z,3.92
2019-05-05T03:06:04.456Z,3.90
2019-05-05T03:07:04.706Z,3.92
2019-05-05T03:08:04.836Z,3.90
2019-05-05T03:09:04.465Z,4.04
2019-05-05T03:10:03.794Z,4.02
2019-05-05T03:11:03.892Z,4.04
2019-05-05T03:12:04.761Z,4.00
2019-05-05T03:13:04.885Z,3.96
2019-05-05T03:14:04.067Z,4.04
2019-05-05T03:15:04.140Z,4.03
2019-05-05T03:16:03.763Z,4.00
2019-05-05T03:17:04.220Z,4.11
2019-05-05T03:18:04.147Z,4.10
2019-05-05T03:19:03.596Z,4.07
2019-05-05T03:20:04.112Z,4.11
2019-05-05T03:21:07.138Z,4.22
2019-05-05T03:22:03.700Z,4.11
2019-05-05T03:23:04.195Z,4.18
2019-05-05T03:24:03.763Z,4.28
2019-05-05T03:25:04.676Z,4.30
2019-05-05T03:26:03.970Z,4.28
2019-05-05T03:27:03.923Z,4.28
2019-05-05T03:28:04.437Z,4.26
2019-05-05T03:29:04.781Z,4.30
2019-05-05T03:30:05.014Z,4.35
2019-05-05T03:31:04.972Z,4.33
2019-05-05T03:32:05.532Z,4.40
2019-05-05T03:33:05.561Z,4.33
2019-05-05T03:34:06.017Z,4.38
2019-05-05T03:35:04.270Z,4.35
2019-05-05T03:36:03.695Z,4.35
2019-05-05T03:37:04.342Z,4.36
2019-05-05T03:38:03.927Z,4.44
2019-05-05T03:39:05.134Z,4.32
2019-05-05T03:40:04.330Z,4.36
2019-05-05T03:41:03.806Z,4.36
2019-05-05T03:42:03.828Z,4.29
2019-05-05T03:43:04.237Z,4.24
2019-05-05T03:44:04.749Z,4.30
2019-05-05T03:45:04.246Z,4.26
2019-05-05T03:46:04.485Z,4.28
2019-05-05T03:47:03.948Z,4.28
2019-05-05T03:48:04.596Z,4.28
2019-05-05T03:49:04.816Z,4.21
2019-05-05T03:50:04.418Z,4.17
2019-05-05T03:51:17.475Z,4.29
2019-05-05T03:52:04.869Z,4.26
2019-05-05T03:53:04.911Z,4.20
2019-05-05T03:54:04.451Z,4.24
2019-05-05T03:55:04.125Z,4.17
2019-05-05T03:56:04.154Z,4.20
2019-05-05T03:57:04.172Z,4.21
2019-05-05T03:58:04.254Z,4.26
2019-05-05T03:59:04.922Z,4.32
2019-05-05T04:00:04.499Z,4.28
2019-05-05T04:01:04.357Z,4.21
2019-05-05T04:02:04.285Z,4.26
2019-05-05T04:03:04.371Z,4.20
2019-05-05T04:04:04.328Z,4.18
2019-05-05T04:05:04.353Z,4.22
2019-05-05T04:06:04.478Z,4.15
2019-05-05T04:07:04.850Z,4.20
2019-05-05T04:08:04.419Z,4.20
2019-05-05T04:09:04.448Z,4.20
2019-05-05T04:10:04.467Z,4.24
2019-05-05T04:11:04.487Z,4.20
2019-05-05T04:12:04.635Z,4.15
2019-05-05T04:13:04.784Z,4.20
2019-05-05T04:14:04.557Z,4.21
2019-05-05T04:15:04.579Z,4.20
2019-05-05T04:16:04.602Z,4.24
2019-05-05T04:17:04.625Z,4.22
2019-05-05T04:18:04.649Z,4.21
2019-05-05T04:19:04.676Z,4.26
2019-05-05T04:20:04.697Z,4.21
2019-05-05T04:21:04.716Z,4.26
2019-05-05T04:22:04.735Z,4.29
2019-05-05T04:23:04.763Z,4.26
2019-05-05T04:24:04.782Z,4.30
2019-05-05T04:25:04.813Z,4.29
2019-05-05T04:26:04.829Z,4.24
2019-05-05T04:27:04.852Z,4.30
2019-05-05T04:28:04.871Z,4.24
2019-05-05T04:29:05.478Z,4.29
2019-05-05T04:30:04.928Z,4.29
2019-05-05T04:31:04.947Z,4.32
2019-05-05T04:32:04.966Z,4.29
2019-05-05T04:33:04.994Z,4.26
2019-05-05T04:34:05.011Z,4.38
2019-05-05T04:35:05.034Z,4.35
2019-05-05T04:36:05.054Z,4.36
2019-05-05T04:37:05.082Z,4.50
2019-05-05T04:38:05.098Z,4.48
2019-05-05T04:39:05.130Z,4.44
2019-05-05T04:40:05.147Z,4.39
2019-05-05T04:41:05.171Z,4.53
2019-05-05T04:42:05.191Z,4.57
2019-05-05T04:43:05.219Z,4.46
2019-05-05T04:44:05.243Z,4.47
2019-05-05T04:45:05.265Z,4.48
2019-05-05T04:46:05.282Z,4.60
2019-05-05T04:47:05.305Z,4.71
2019-05-05T04:48:05.329Z,4.69
2019-05-05T04:49:05.354Z,4.75
2019-05-05T04:50:05.375Z,4.74
2019-05-05T04:51:05.398Z,4.83
2019-05-05T04:52:05.419Z,4.84
2019-05-05T04:53:05.446Z,4.90
2019-05-05T04:54:05.468Z,4.90
2019-05-05T04:55:05.496Z,4.92
2019-05-05T04:56:05.516Z,4.98
2019-05-05T04:57:05.540Z,4.94
2019-05-05T04:58:05.565Z,5.02
2019-05-05T04:59:05.587Z,5.08
2019-05-05T05:00:05.605Z,5.15
2019-05-05T05:01:05.628Z,5.13
2019-05-05T05:02:05.651Z,5.13
2019-05-05T05:03:05.681Z,5.26
2019-05-05T05:04:05.705Z,5.27
2019-05-05T05:05:05.719Z,5.30
2019-05-05T05:06:05.748Z,5.39
2019-05-05T05:07:05.765Z,5.36
2019-05-05T05:08:05.794Z,5.44
2019-05-05T05:09:05.811Z,5.49
2019-05-05T05:10:05.833Z,5.46
2019-05-05T05:11:05.856Z,5.54
2019-05-05T05:12:05.882Z,5.52
2019-05-05T05:13:05.906Z,5.46
2019-05-05T05:14:05.927Z,5.55
2019-05-05T05:15:05.947Z,5.63
2019-05-05T05:16:05.976Z,5.63
2019-05-05T05:17:06.000Z,5.66
2019-05-05T05:18:06.020Z,5.75
2019-05-05T05:19:06.044Z,5.81
2019-05-05T05:20:06.067Z,5.84
2019-05-05T05:21:06.092Z,5.89
2019-05-05T05:22:06.114Z,5.95
2019-05-05T05:23:06.135Z,5.92
2019-05-05T05:24:06.174Z,6.13
2019-05-05T05:25:06.189Z,6.28
2019-05-05T05:26:06.207Z,6.57
2019-05-05T05:27:06.229Z,6.75
2019-05-05T05:28:06.255Z,6.86
2019-05-05T05:29:06.277Z,6.85
2019-05-05T05:30:06.304Z,6.78
2019-05-05T05:31:06.332Z,6.54
2019-05-05T05:32:06.349Z,6.64
2019-05-05T05:33:06.380Z,6.70
2019-05-05T05:34:48.943Z,6.73
2019-05-05T05:35:48.969Z,6.73
2019-05-05T05:36:48.991Z,6.58
2019-05-05T05:37:49.022Z,6.65
2019-05-05T05:38:49.042Z,6.61
2019-05-05T05:39:49.069Z,6.72
2019-05-05T05:40:49.086Z,6.73
2019-05-05T05:41:49.118Z,6.90
2019-05-05T05:42:49.136Z,6.97
2019-05-05T05:43:49.165Z,7.23
2019-05-05T05:44:49.186Z,7.51
2019-05-05T05:45:49.207Z,7.64
2019-05-05T05:46:49.239Z,7.52
2019-05-05T05:47:49.258Z,7.44
2019-05-05T05:48:49.282Z,7.67
2019-05-05T05:49:49.304Z,7.71
2019-05-05T05:50:49.336Z,8.01
2019-05-05T05:51:49.355Z,8.01
2019-05-05T05:52:49.378Z,8.24
2019-05-05T05:53:49.403Z,8.25
2019-05-05T05:54:53.533Z,8.46
2019-05-05T05:55:49.451Z,8.69
2019-05-05T05:56:49.482Z,8.60
2019-05-05T05:57:49.505Z,8.49
2019-05-05T05:58:49.526Z,8.06
2019-05-05T05:59:49.556Z,7.88
2019-05-05T06:00:49.575Z,7.59
2019-05-05T06:01:49.601Z,7.68
2019-05-05T06:02:49.627Z,7.91
2019-05-05T06:03:49.653Z,7.82
2019-05-05T06:04:49.681Z,7.86
2019-05-05T06:05:49.701Z,7.96
2019-05-05T06:06:49.732Z,8.19
2019-05-05T06:07:49.757Z,8.36
2019-05-05T06:08:49.784Z,8.53
2019-05-05T06:09:49.802Z,8.64
2019-05-05T06:10:49.833Z,8.50
2019-05-05T06:12:33.690Z,8.53
2019-05-05T06:13:33.658Z,8.62
2019-05-05T06:14:34.118Z,8.83
2019-05-05T06:15:33.818Z,8.80
2019-05-05T06:16:34.187Z,9.01
2019-05-05T06:17:34.337Z,8.77
2019-05-05T06:18:34.479Z,8.62
2019-05-05T06:19:33.735Z,8.39
2019-05-05T06:20:34.359Z,8.35
2019-05-05T06:21:33.725Z,8.28
2019-05-05T06:22:34.425Z,8.16
2019-05-05T06:23:34.392Z,7.86
2019-05-05T06:24:34.581Z,7.78
2019-05-05T06:25:34.180Z,7.77
2019-05-05T06:26:34.259Z,7.71
2019-05-05T06:27:34.220Z,7.64
2019-05-05T06:28:34.251Z,7.55
2019-05-05T06:29:34.541Z,7.61
2019-05-05T06:30:33.661Z,7.63
2019-05-05T06:31:34.149Z,7.64
2019-05-05T06:32:34.271Z,7.70
2019-05-05T06:33:34.735Z,7.73
2019-05-05T06:34:33.848Z,7.64
2019-05-05T06:35:33.801Z,7.58
2019-05-05T06:36:34.035Z,7.59
2019-05-05T06:37:34.281Z,7.59
2019-05-05T06:38:34.534Z,7.58
2019-05-05T06:39:33.549Z,7.49
2019-05-05T06:40:34.189Z,7.56
2019-05-05T06:41:34.219Z,7.41
2019-05-05T06:42:34.290Z,7.29
2019-05-05T06:43:34.798Z,7.31
2019-05-05T06:44:33.806Z,7.29
2019-05-05T06:45:34.285Z,7.19
2019-05-05T06:46:34.219Z,7.21
2019-05-05T06:47:33.979Z,7.23
2019-05-05T06:48:34.344Z,7.31
2019-05-05T06:49:34.560Z,7.47
2019-05-05T06:50:34.489Z,7.49
2019-05-05T06:51:33.600Z,7.44
2019-05-05T06:52:43.844Z,7.47
2019-05-05T06:53:34.159Z,7.37
2019-05-05T06:54:34.840Z,7.33
2019-05-05T06:55:34.096Z,7.29
2019-05-05T06:56:34.202Z,7.29
2019-05-05T06:57:34.310Z,7.26
2019-05-05T06:58:34.717Z,7.26
2019-05-05T06:59:34.917Z,7.34
2019-05-05T07:00:34.658Z,7.41
2019-05-05T07:01:33.872Z,7.47
2019-05-05T07:03:16.214Z,7.59
2019-05-05T07:04:16.245Z,7.67
2019-05-05T07:05:16.265Z,7.64
2019-05-05T07:06:16.294Z,7.68
2019-05-05T07:07:16.317Z,7.64
2019-05-05T07:08:16.344Z,7.73
2019-05-05T07:09:16.363Z,7.73
2019-05-05T07:10:16.392Z,7.67
2019-05-05T07:11:16.430Z,7.78
2019-05-05T07:12:16.438Z,7.86
2019-05-05T07:13:16.462Z,7.83
2019-05-05T07:14:16.486Z,7.92
2019-05-05T07:15:16.517Z,7.96
2019-05-05T07:16:16.536Z,8.03
2019-05-05T07:17:16.562Z,8.17
2019-05-05T07:18:16.582Z,8.21
2019-05-05T07:19:16.618Z,8.34
2019-05-05T07:20:16.635Z,8.44
2019-05-05T07:21:16.657Z,8.50
2019-05-05T07:22:17.796Z,8.47
2019-05-05T07:23:16.706Z,8.44
2019-05-05T07:24:16.732Z,8.34
2019-05-05T07:25:16.763Z,8.22
2019-05-05T07:26:16.780Z,8.14
2019-05-05T07:27:16.804Z,8.07
2019-05-05T07:28:16.836Z,7.99
2019-05-05T07:29:18.160Z,7.77
2019-05-05T07:30:16.881Z,7.96
2019-05-05T07:31:16.906Z,7.88
2019-05-05T07:32:16.933Z,7.78
2019-05-05T07:34:29.574Z,7.71
2019-05-05T07:35:29.598Z,7.73
2019-05-05T07:36:29.621Z,7.82
2019-05-05T07:37:29.651Z,7.88
2019-05-05T07:38:29.676Z,7.95
2019-05-05T07:39:29.701Z,7.95
2019-05-05T07:40:29.719Z,7.95
2019-05-05T07:41:29.752Z,8.01
2019-05-05T07:42:29.771Z,7.99
2019-05-05T07:43:29.796Z,7.99
2019-05-05T07:44:29.934Z,7.98
2019-05-05T07:45:29.843Z,8.16
2019-05-05T07:46:29.876Z,8.25
2019-05-05T07:47:29.896Z,8.25
2019-05-05T07:48:29.919Z,8.39
2019-05-05T07:49:29.944Z,8.32
2019-05-05T07:50:32.576Z,8.26
2019-05-05T07:51:29.994Z,8.25
2019-05-05T07:52:30.018Z,8.26
2019-05-05T07:53:30.047Z,8.25
2019-05-05T07:54:30.066Z,8.16
2019-05-05T07:55:30.090Z,8.29
2019-05-05T07:56:30.120Z,8.32
2019-05-05T07:57:30.139Z,8.36
2019-05-05T07:58:30.165Z,8.50
2019-05-05T07:59:30.196Z,8.65
2019-05-05T08:00:30.216Z,8.61
2019-05-05T08:01:30.239Z,8.67
2019-05-05T08:02:30.266Z,8.69
2019-05-05T08:03:30.291Z,8.68
2019-05-05T08:04:30.315Z,8.71
2019-05-05T08:05:30.338Z,8.77
2019-05-05T08:06:30.364Z,8.68
2019-05-05T08:07:30.396Z,8.74
2019-05-05T08:08:30.419Z,8.82
2019-05-05T08:09:30.441Z,8.82
2019-05-05T08:10:30.466Z,8.89
2019-05-05T08:11:30.489Z,8.95
2019-05-05T08:12:30.516Z,9.01
2019-05-05T08:13:30.542Z,8.82
2019-05-05T08:14:30.567Z,8.77
2019-05-05T08:15:30.590Z,8.92
2019-05-05T08:16:30.616Z,9.03
2019-05-05T08:17:30.641Z,9.03
2019-05-05T08:18:30.667Z,9.08
2019-05-05T08:19:30.700Z,9.16
2019-05-05T08:20:30.715Z,9.16
2019-05-05T08:21:30.741Z,9.26
2019-05-05T08:22:30.765Z,9.50
2019-05-05T08:23:32.759Z,9.62
2019-05-05T08:24:30.824Z,9.72
2019-05-05T08:25:39.334Z,9.67
2019-05-05T08:26:30.879Z,9.81
2019-05-05T08:27:30.894Z,10.03
2019-05-05T08:28:31.017Z,10.00
2019-05-05T08:30:28.529Z,9.98
2019-05-05T08:31:28.555Z,10.15
2019-05-05T08:32:28.579Z,10.55
2019-05-05T08:33:28.611Z,10.91
2019-05-05T08:34:28.633Z,11.13
2019-05-05T08:35:28.665Z,11.23
2019-05-05T08:36:28.682Z,11.39
2019-05-05T08:37:28.715Z,11.70
2019-05-05T08:38:28.736Z,11.42
2019-05-05T08:39:28.769Z,11.35
2019-05-05T08:40:28.791Z,11.52
2019-05-05T08:41:28.813Z,11.64
2019-05-05T08:42:28.852Z,11.66
2019-05-05T08:43:28.870Z,11.64
2019-05-05T08:44:28.894Z,11.73
2019-05-05T08:45:28.922Z,11.64
2019-05-05T08:46:28.962Z,12.11
2019-05-05T08:47:28.977Z,12.20
2019-05-05T08:48:28.999Z,12.38
2019-05-05T08:49:29.030Z,12.69
2019-05-05T08:50:29.054Z,12.47
2019-05-05T08:51:29.081Z,12.80
2019-05-05T08:52:29.114Z,13.40
2019-05-05T08:53:41.545Z,14.38
2019-05-05T08:54:29.163Z,14.80
2019-05-05T08:55:29.200Z,14.24
2019-05-05T08:56:29.218Z,14.20
2019-05-05T08:57:29.245Z,14.21
2019-05-05T08:58:29.276Z,14.01
2019-05-05T08:59:29.307Z,13.17
2019-05-05T09:00:29.328Z,13.27
2019-05-05T09:02:11.905Z,13.45
2019-05-05T09:03:13.826Z,13.99
2019-05-05T09:04:14.034Z,14.41
2019-05-05T09:05:12.002Z,15.02
2019-05-05T09:06:13.718Z,15.27
2019-05-05T09:07:13.732Z,15.30
2019-05-05T09:08:13.821Z,15.86
2019-05-05T09:09:14.268Z,16.16
2019-05-05T09:10:14.128Z,15.99
2019-05-05T09:11:14.003Z,16.17
2019-05-05T09:12:13.884Z,15.07
2019-05-05T09:13:14.132Z,14.26
2019-05-05T09:14:14.699Z,13.39
2019-05-05T09:15:13.686Z,12.70
2019-05-05T09:16:14.447Z,12.26
2019-05-05T09:17:13.657Z,12.66
2019-05-05T09:18:14.151Z,13.94
2019-05-05T09:19:14.537Z,14.39
2019-05-05T09:20:13.639Z,15.04
2019-05-05T09:22:14.020Z,16.02
2019-05-05T09:23:14.672Z,15.80
2019-05-05T09:24:14.262Z,16.26
2019-05-05T09:25:13.655Z,15.99
2019-05-05T09:26:13.795Z,15.47
2019-05-05T09:27:14.136Z,14.77
2019-05-05T09:28:14.633Z,14.19
2019-05-05T09:29:13.734Z,13.58
2019-05-05T09:30:14.246Z,14.52
2019-05-05T09:31:14.611Z,14.21
2019-05-05T09:32:13.894Z,14.63
2019-05-05T09:33:14.228Z,15.58
2019-05-05T09:34:14.652Z,15.84
2019-05-05T09:35:13.922Z,16.32
2019-05-05T09:36:13.936Z,17.07
2019-05-05T09:37:14.360Z,17.25
2019-05-05T09:38:14.736Z,17.47
2019-05-05T09:39:13.844Z,16.80
2019-05-05T09:40:13.894Z,15.89
2019-05-05T09:41:14.316Z,15.44
2019-05-05T09:42:14.553Z,14.87
2019-05-05T09:43:14.752Z,14.39
2019-05-05T09:44:13.653Z,13.99
2019-05-05T09:45:13.985Z,13.76
2019-05-05T09:46:14.364Z,13.68
2019-05-05T09:47:13.836Z,13.25
2019-05-05T09:48:14.099Z,13.06
2019-05-05T09:49:14.110Z,12.86
2019-05-05T09:50:14.357Z,12.69
2019-05-05T09:51:13.685Z,12.74
2019-05-05T09:52:14.008Z,12.78
2019-05-05T09:53:14.548Z,12.77
2019-05-05T09:54:15.077Z,12.61
2019-05-05T09:55:13.959Z,12.55
2019-05-05T09:56:14.556Z,12.43
2019-05-05T09:57:14.558Z,12.26
2019-05-05T09:58:13.884Z,12.04
2019-05-05T09:59:13.682Z,11.88
2019-05-05T10:00:14.085Z,11.63
2019-05-05T10:01:14.171Z,11.16
2019-05-05T10:02:13.766Z,10.65
2019-05-05T10:03:14.471Z,10.31
2019-05-05T10:04:13.952Z,10.10
2019-05-05T10:05:14.527Z,9.90
2019-05-05T10:06:14.327Z,9.50
2019-05-05T10:07:13.981Z,9.12
2019-05-05T10:08:14.393Z,9.03
2019-05-05T10:09:13.964Z,9.04
2019-05-05T10:10:13.994Z,9.04
2019-05-05T10:11:16.554Z,9.16
2019-05-05T10:12:13.997Z,9.26
2019-05-05T10:13:14.891Z,9.29
2019-05-05T10:14:14.426Z,9.48
2019-05-05T10:15:14.158Z,9.53
2019-05-05T10:16:14.424Z,9.70
2019-05-05T10:17:14.276Z,9.77
2019-05-05T10:18:14.337Z,9.89
2019-05-05T10:19:14.178Z,9.84
2019-05-05T10:20:14.617Z,9.96
2019-05-05T10:21:17.323Z,10.15
2019-05-05T10:22:14.915Z,10.14
2019-05-05T10:23:14.404Z,10.18
2019-05-05T10:24:27.157Z,10.20
2019-05-05T10:25:14.341Z,10.29
2019-05-05T10:26:14.924Z,10.36
2019-05-05T10:27:14.395Z,10.46
2019-05-05T10:28:14.425Z,10.66
2019-05-05T10:29:14.447Z,10.80
2019-05-05T10:30:14.472Z,11.03
2019-05-05T10:31:14.508Z,11.26
2019-05-05T10:32:14.526Z,11.75
2019-05-05T10:33:14.550Z,12.69
2019-05-05T10:34:14.584Z,13.94
2019-05-05T10:35:14.610Z,14.61
2019-05-05T10:36:14.631Z,14.66
2019-05-05T10:37:14.661Z,14.28
2019-05-05T10:38:14.686Z,13.95
2019-05-05T10:39:14.712Z,13.53
2019-05-05T10:40:14.741Z,13.03
2019-05-05T10:41:14.772Z,12.89
2019-05-05T10:42:14.804Z,13.42
2019-05-05T10:43:15.019Z,14.01
2019-05-05T10:44:14.852Z,14.30
2019-05-05T10:45:14.880Z,15.01
2019-05-05T10:46:14.905Z,14.95
2019-05-05T10:47:14.936Z,15.25
2019-05-05T10:48:14.964Z,15.55
2019-05-05T10:49:14.992Z,15.27
2019-05-05T10:50:15.020Z,15.63
2019-05-05T10:51:15.052Z,15.31
2019-05-05T10:52:15.077Z,14.63
2019-05-05T10:53:15.108Z,14.19
2019-05-05T10:54:15.146Z,13.70
2019-05-05T10:55:15.165Z,13.42
2019-05-05T10:56:15.199Z,13.11
2019-05-05T10:57:18.337Z,13.16
2019-05-05T10:58:15.258Z,13.09
2019-05-05T10:59:15.283Z,12.86
2019-05-05T11:00:15.685Z,12.62
2019-05-05T11:01:15.344Z,12.48
2019-05-05T11:02:15.368Z,12.40
2019-05-05T11:03:15.440Z,12.33
2019-05-05T11:04:15.429Z,12.11
2019-05-05T11:05:15.455Z,12.05
2019-05-05T11:06:15.484Z,12.01
2019-05-05T11:07:58.065Z,12.22
2019-05-05T11:08:58.098Z,12.11
2019-05-05T11:09:58.124Z,12.23
2019-05-05T11:10:58.163Z,12.28
2019-05-05T11:11:58.181Z,11.84
2019-05-05T11:12:58.213Z,11.70
2019-05-05T11:13:58.236Z,11.61
2019-05-05T11:14:58.283Z,11.42
2019-05-05T11:15:58.509Z,11.35
2019-05-05T11:16:58.322Z,11.24
2019-05-05T11:17:58.350Z,11.23
2019-05-05T11:18:58.375Z,11.21
2019-05-05T11:19:58.411Z,11.23
2019-05-05T11:20:58.432Z,11.28
2019-05-05T11:21:58.461Z,11.42
2019-05-05T11:22:58.487Z,11.48
2019-05-05T11:23:58.521Z,11.59
2019-05-05T11:25:01.123Z,11.59
2019-05-05T11:25:58.568Z,11.70
2019-05-05T11:26:58.600Z,11.88
2019-05-05T11:27:58.623Z,13.40
2019-05-05T11:28:58.651Z,14.71
2019-05-05T11:29:58.684Z,15.80
2019-05-05T11:30:58.704Z,16.40
2019-05-05T11:31:58.732Z,16.73
2019-05-05T11:32:58.768Z,16.88
2019-05-05T11:33:58.788Z,16.99
2019-05-05T11:34:58.815Z,17.07
2019-05-05T11:35:58.845Z,17.22
2019-05-05T11:36:58.874Z,16.33
2019-05-05T11:37:58.903Z,15.08
2019-05-05T11:38:58.929Z,14.80
2019-05-05T11:39:58.957Z,15.18
2019-05-05T11:40:58.996Z,14.86
2019-05-05T11:41:59.023Z,14.69
2019-05-05T11:42:59.045Z,14.16
2019-05-05T11:43:59.080Z,13.83
2019-05-05T11:44:59.104Z,13.76
2019-05-05T11:45:59.136Z,13.17
2019-05-05T11:46:59.166Z,13.13
2019-05-05T11:47:59.193Z,13.03
2019-05-05T11:48:59.220Z,12.99
2019-05-05T11:49:59.266Z,12.80
2019-05-05T11:50:59.284Z,12.77
2019-05-05T11:51:59.309Z,12.73
2019-05-05T11:52:59.344Z,12.74
2019-05-05T11:53:59.367Z,12.71
2019-05-05T11:55:09.696Z,12.77
2019-05-05T11:55:59.425Z,12.86
2019-05-05T11:56:59.459Z,12.86
2019-05-05T11:57:59.489Z,13.01
2019-05-05T11:58:59.509Z,13.06
2019-05-05T11:59:59.538Z,13.03
2019-05-05T12:00:59.567Z,13.19
2019-05-05T12:01:59.593Z,13.29
2019-05-05T12:02:59.621Z,13.44
2019-05-05T12:03:59.656Z,13.13
2019-05-05T12:04:59.687Z,13.19
2019-05-05T12:05:59.708Z,13.17
2019-05-05T12:06:59.736Z,13.39
2019-05-05T12:07:59.770Z,13.16
2019-05-05T12:08:59.790Z,13.19
2019-05-05T12:09:59.820Z,13.25
2019-05-05T12:10:59.849Z,13.44
2019-05-05T12:11:59.874Z,13.72
2019-05-05T12:12:59.905Z,13.93
2019-05-05T12:13:59.933Z,14.06
2019-05-05T12:14:59.966Z,14.26
2019-05-05T12:15:59.991Z,14.75
2019-05-05T12:17:00.023Z,15.34
2019-05-05T12:18:00.045Z,15.99
2019-05-05T12:19:00.072Z,16.18
2019-05-05T12:20:00.102Z,15.99
2019-05-05T12:21:00.129Z,15.67
2019-05-05T12:22:00.161Z,15.37
2019-05-05T12:23:00.186Z,14.95
2019-05-05T12:24:00.414Z,14.89
2019-05-05T12:25:00.243Z,14.87
2019-05-05T12:26:00.276Z,15.20
2019-05-05T12:27:00.299Z,15.35
2019-05-05T12:28:00.331Z,15.56
2019-05-05T12:29:00.356Z,16.49
2019-05-05T12:30:00.386Z,16.85
2019-05-05T12:31:00.414Z,17.31
2019-05-05T12:32:00.458Z,16.47
2019-05-05T12:33:00.471Z,15.86
2019-05-05T12:34:00.502Z,15.44
2019-05-05T12:35:00.529Z,16.17
2019-05-05T12:36:00.567Z,15.78
2019-05-05T12:37:00.590Z,16.17
2019-05-05T12:38:00.617Z,16.11
2019-05-05T12:39:00.646Z,16.30
2019-05-05T12:40:00.684Z,17.02
2019-05-05T12:41:00.707Z,17.58
2019-05-05T12:42:00.736Z,17.74
2019-05-05T12:43:00.769Z,18.03
2019-05-05T12:44:00.794Z,17.07
2019-05-05T12:45:00.823Z,16.49
2019-05-05T12:46:00.860Z,16.39
2019-05-05T12:47:00.893Z,16.32
2019-05-05T12:48:00.913Z,16.42
2019-05-05T12:49:00.946Z,16.32
2019-05-05T12:50:00.976Z,15.59
2019-05-05T12:51:43.705Z,14.89
2019-05-05T12:52:44.073Z,14.60
2019-05-05T12:53:43.617Z,14.31
2019-05-05T12:54:44.111Z,14.16
2019-05-05T12:55:44.540Z,13.81
2019-05-05T12:56:44.591Z,13.62
2019-05-05T12:57:43.735Z,13.17
2019-05-05T12:58:44.066Z,12.94
2019-05-05T12:59:44.450Z,12.89
2019-05-05T13:00:43.827Z,12.74
2019-05-05T13:01:44.110Z,12.88
2019-05-05T13:02:44.222Z,12.88
2019-05-05T13:03:43.919Z,12.92
2019-05-05T13:04:43.944Z,12.83
2019-05-05T13:05:44.642Z,12.95
2019-05-05T13:06:45.076Z,13.27
2019-05-05T13:07:44.216Z,13.70
2019-05-05T13:08:44.607Z,14.01
2019-05-05T13:09:44.224Z,13.90
2019-05-05T13:10:44.272Z,13.87
2019-05-05T13:11:44.139Z,13.95
2019-05-05T13:12:44.166Z,13.63
2019-05-05T13:13:44.201Z,13.36
2019-05-05T13:14:44.221Z,13.21
2019-05-05T13:15:44.365Z,13.44
2019-05-05T13:16:52.767Z,13.45
2019-05-05T13:17:44.307Z,13.54